createdAt,value
2022-10-31T00:01:39.568Z,12.22
2022-10-31T00:04:07.906Z,12.15
2022-10-31T00:06:36.156Z,12.07
2022-10-31T00:09:06.304Z,12.00
2022-10-31T00:11:34.858Z,12.00
2022-10-31T00:14:03.561Z,11.96
2022-10-31T00:16:32.031Z,11.93
2022-10-31T00:19:05.636Z,11.92
2022-10-31T00:21:34.576Z,11.94
2022-10-31T00:24:03.924Z,11.93
2022-10-31T00:26:32.997Z,11.94
2022-10-31T00:29:01.812Z,11.98
2022-10-31T00:31:30.718Z,12.04
2022-10-31T00:33:59.799Z,12.12
2022-10-31T00:36:28.684Z,12.19
2022-10-31T00:38:57.083Z,12.22
2022-10-31T00:41:26.287Z,12.24
2022-10-31T00:43:54.563Z,12.25
2022-10-31T00:46:22.836Z,12.22
2022-10-31T00:48:52.645Z,12.23
2022-10-31T00:51:20.927Z,12.25
2022-10-31T00:53:49.277Z,12.23
2022-10-31T00:56:18.322Z,12.22
2022-10-31T00:58:47.081Z,12.20
2022-10-31T01:01:15.448Z,12.24
2022-10-31T01:03:43.866Z,12.24
2022-10-31T01:06:15.367Z,12.23
2022-10-31T01:08:44.271Z,12.20
2022-10-31T01:11:19.885Z,12.18
2022-10-31T01:13:50.952Z,12.13
2022-10-31T01:16:22.875Z,12.17
2022-10-31T01:18:52.644Z,12.16
2022-10-31T01:21:27.352Z,12.13
2022-10-31T01:23:59.700Z,12.11
2022-10-31T01:26:32.000Z,12.10
2022-10-31T01:29:08.328Z,12.07
2022-10-31T01:31:41.243Z,12.10
2022-10-31T01:34:16.396Z,12.07
2022-10-31T01:36:48.417Z,12.04
2022-10-31T01:39:18.156Z,12.05
2022-10-31T01:41:50.106Z,12.01
2022-10-31T01:44:18.402Z,12.04
2022-10-31T01:46:57.630Z,12.07
2022-10-31T01:49:49.892Z,12.10
2022-10-31T01:52:28.467Z,12.04
2022-10-31T01:55:14.599Z,12.06
2022-10-31T01:57:48.907Z,12.04
2022-10-31T02:00:21.080Z,12.02
2022-10-31T02:02:51.318Z,12.00
2022-10-31T02:05:25.908Z,12.01
2022-10-31T02:08:08.182Z,12.02
2022-10-31T02:10:38.244Z,12.04
2022-10-31T02:13:09.287Z,12.07
2022-10-31T02:15:46.672Z,12.11
2022-10-31T02:18:15.345Z,12.14
2022-10-31T02:21:03.294Z,12.16
2022-10-31T02:23:51.218Z,12.17
2022-10-31T02:27:10.505Z,12.17
2022-10-31T02:30:12.464Z,12.22
2022-10-31T02:32:56.005Z,12.17
2022-10-31T02:35:40.852Z,12.13
2022-10-31T02:38:44.048Z,12.06
2022-10-31T02:41:37.928Z,11.99
2022-10-31T02:44:30.670Z,11.89
2022-10-31T02:47:18.802Z,11.65
2022-10-31T02:49:49.144Z,11.65
2022-10-31T02:52:30.623Z,11.60
2022-10-31T02:55:34.128Z,11.43
2022-10-31T02:58:09.951Z,11.51
2022-10-31T03:01:08.936Z,11.49
2022-10-31T03:04:09.832Z,11.32
2022-10-31T03:07:38.518Z,11.19
2022-10-31T03:10:20.725Z,11.26
2022-10-31T03:13:05.798Z,11.17
2022-10-31T03:15:40.271Z,11.13
2022-10-31T03:18:28.951Z,11.01
2022-10-31T03:21:06.862Z,10.95
2022-10-31T03:23:37.954Z,10.94
2022-10-31T03:26:10.779Z,10.81
2022-10-31T03:28:47.674Z,10.75
2022-10-31T03:31:24.332Z,10.70
2022-10-31T03:33:54.129Z,10.64
2022-10-31T03:36:23.955Z,10.58
2022-10-31T03:38:52.848Z,10.54
2022-10-31T03:41:29.011Z,10.56
2022-10-31T03:44:05.067Z,10.53
2022-10-31T03:46:33.955Z,10.60
2022-10-31T03:49:03.114Z,10.63
2022-10-31T03:52:19.247Z,10.63
2022-10-31T03:54:57.374Z,10.58
2022-10-31T03:57:28.192Z,10.54
2022-10-31T04:00:14.510Z,10.58
2022-10-31T04:03:14.015Z,10.56
2022-10-31T04:05:47.703Z,10.50
2022-10-31T04:08:21.808Z,10.38
2022-10-31T04:10:52.543Z,10.33
2022-10-31T04:13:28.268Z,10.34
2022-10-31T04:16:14.317Z,10.31
2022-10-31T04:18:46.729Z,10.28
2022-10-31T04:21:15.159Z,10.28
2022-10-31T04:23:44.140Z,10.30
2022-10-31T04:26:19.186Z,10.28
2022-10-31T04:28:48.693Z,10.27
2022-10-31T04:31:17.190Z,10.23
2022-10-31T04:33:46.660Z,10.21
2022-10-31T04:36:15.261Z,10.09
2022-10-31T04:38:43.933Z,10.07
2022-10-31T04:41:21.542Z,10.01
2022-10-31T04:43:55.436Z,9.95
2022-10-31T04:46:24.031Z,9.91
2022-10-31T04:48:52.513Z,9.88
2022-10-31T04:51:20.886Z,9.88
2022-10-31T04:53:49.759Z,9.91
2022-10-31T04:56:58.647Z,9.94
2022-10-31T04:59:27.294Z,9.98
2022-10-31T05:01:55.893Z,10.05
2022-10-31T05:04:38.769Z,10.10
2022-10-31T05:07:07.082Z,10.13
2022-10-31T05:09:35.319Z,10.12
2022-10-31T05:12:03.634Z,10.16
2022-10-31T05:14:50.210Z,10.09
2022-10-31T05:17:36.736Z,10.11
2022-10-31T05:20:27.612Z,10.16
2022-10-31T05:23:24.128Z,10.23
2022-10-31T05:25:52.479Z,10.22
2022-10-31T05:28:20.980Z,10.21
2022-10-31T05:30:49.198Z,10.22
2022-10-31T05:33:18.048Z,10.10
2022-10-31T05:36:05.340Z,10.09
2022-10-31T05:39:17.297Z,10.12
2022-10-31T05:41:48.985Z,10.11
2022-10-31T05:44:21.856Z,10.21
2022-10-31T05:47:09.242Z,10.29
2022-10-31T05:49:56.975Z,10.39
2022-10-31T05:52:44.039Z,10.44
2022-10-31T05:55:28.603Z,10.46
2022-10-31T05:58:17.647Z,10.48
2022-10-31T06:01:11.513Z,10.58
2022-10-31T06:03:40.383Z,10.60
2022-10-31T06:06:10.952Z,10.62
2022-10-31T06:08:42.161Z,10.64
2022-10-31T06:11:15.831Z,10.70
2022-10-31T06:14:03.796Z,10.77
2022-10-31T06:16:46.336Z,10.85
2022-10-31T06:19:58.064Z,10.92
2022-10-31T06:22:28.612Z,10.91
2022-10-31T06:24:57.527Z,10.83
2022-10-31T06:27:35.906Z,10.58
2022-10-31T06:30:10.639Z,10.61
2022-10-31T06:32:39.180Z,10.60
2022-10-31T06:35:07.860Z,10.66
2022-10-31T06:37:36.316Z,10.68
2022-10-31T06:40:45.989Z,10.74
2022-10-31T06:43:23.247Z,10.78
2022-10-31T06:45:53.620Z,10.84
2022-10-31T06:48:43.226Z,10.89
2022-10-31T06:51:17.818Z,11.04
2022-10-31T06:53:46.429Z,11.08
2022-10-31T06:56:15.476Z,11.07
2022-10-31T06:58:47.532Z,11.16
2022-10-31T07:01:17.500Z,11.23
2022-10-31T07:03:45.968Z,11.22
2022-10-31T07:06:15.565Z,11.35
2022-10-31T07:08:44.311Z,11.47
2022-10-31T07:11:12.616Z,11.48
2022-10-31T07:13:41.190Z,11.68
2022-10-31T07:16:13.123Z,11.83
2022-10-31T07:18:42.153Z,11.89
2022-10-31T07:21:10.500Z,11.99
2022-10-31T07:23:38.779Z,12.00
2022-10-31T07:27:02.926Z,12.03
2022-10-31T07:29:31.326Z,12.13
2022-10-31T07:32:00.103Z,12.21
2022-10-31T07:34:29.314Z,12.30
2022-10-31T07:36:57.583Z,12.38
2022-10-31T07:39:26.147Z,12.43
2022-10-31T07:41:54.444Z,12.49
2022-10-31T07:44:22.756Z,12.56
2022-10-31T07:47:09.299Z,12.63
2022-10-31T07:49:56.231Z,12.71
2022-10-31T07:52:43.248Z,12.76
2022-10-31T07:55:26.801Z,12.76
2022-10-31T07:58:02.612Z,12.81
2022-10-31T08:00:33.712Z,12.83
2022-10-31T08:03:04.948Z,12.84
2022-10-31T08:06:32.293Z,13.01
2022-10-31T08:09:15.053Z,13.04
2022-10-31T08:11:43.554Z,13.08
2022-10-31T08:14:11.934Z,13.06
2022-10-31T08:16:40.410Z,13.01
2022-10-31T08:19:09.079Z,13.03
2022-10-31T08:21:39.596Z,12.99
2022-10-31T08:24:10.247Z,12.99
2022-10-31T08:26:39.329Z,13.01
2022-10-31T08:29:09.943Z,13.08
2022-10-31T08:31:42.573Z,13.14
2022-10-31T08:34:29.572Z,13.17
2022-10-31T08:37:21.023Z,13.15
2022-10-31T08:39:54.024Z,13.19
2022-10-31T08:42:23.008Z,13.12
2022-10-31T08:44:51.497Z,13.19
2022-10-31T08:47:22.628Z,13.27
2022-10-31T08:49:50.940Z,13.38
2022-10-31T08:52:19.398Z,13.50
2022-10-31T08:54:48.846Z,13.62
2022-10-31T08:57:35.717Z,13.65
2022-10-31T09:00:04.776Z,13.53
2022-10-31T09:03:25.484Z,13.53
2022-10-31T09:06:00.537Z,13.56
2022-10-31T09:08:34.044Z,13.38
2022-10-31T09:11:04.401Z,13.34
2022-10-31T09:14:28.487Z,13.18
2022-10-31T09:17:15.249Z,13.13
2022-10-31T09:20:06.776Z,13.14
2022-10-31T09:22:36.252Z,13.19
2022-10-31T09:25:05.100Z,13.11
2022-10-31T09:27:33.410Z,13.11
2022-10-31T09:30:03.168Z,13.02
2022-10-31T09:32:31.618Z,13.06
2022-10-31T09:35:00.161Z,13.06
2022-10-31T09:37:30.064Z,13.17
2022-10-31T09:39:58.496Z,13.33
2022-10-31T09:43:17.319Z,13.44
2022-10-31T09:46:37.189Z,13.39
2022-10-31T09:49:36.068Z,13.39
2022-10-31T09:52:22.246Z,13.36
2022-10-31T09:54:58.096Z,13.34
2022-10-31T09:57:36.799Z,13.31
2022-10-31T10:00:08.449Z,13.27
2022-10-31T10:03:29.852Z,13.24
2022-10-31T10:06:16.419Z,13.25
2022-10-31T10:09:04.136Z,13.23
2022-10-31T10:12:21.129Z,13.27
2022-10-31T10:15:07.539Z,13.25
2022-10-31T10:17:51.023Z,13.28
2022-10-31T10:20:50.373Z,13.26
2022-10-31T10:23:30.824Z,13.26
2022-10-31T10:26:14.128Z,13.29
2022-10-31T10:28:48.544Z,13.30
2022-10-31T10:31:23.109Z,13.31
2022-10-31T10:34:09.220Z,13.35
2022-10-31T10:36:56.040Z,13.35
2022-10-31T10:39:34.311Z,13.39
2022-10-31T10:42:26.973Z,13.42
2022-10-31T10:45:14.061Z,13.45
2022-10-31T10:47:55.475Z,13.45
2022-10-31T10:50:39.768Z,13.49
2022-10-31T10:53:33.088Z,13.54
2022-10-31T10:56:03.947Z,13.64
2022-10-31T10:58:32.268Z,13.69
2022-10-31T11:01:00.723Z,13.74
2022-10-31T11:03:29.244Z,13.79
2022-10-31T11:06:03.013Z,13.84
2022-10-31T11:08:37.295Z,13.86
2022-10-31T11:11:17.882Z,13.89
2022-10-31T11:13:58.932Z,13.93
2022-10-31T11:16:27.333Z,13.96
2022-10-31T11:19:09.039Z,13.98
2022-10-31T11:21:37.883Z,14.00
2022-10-31T11:24:12.354Z,14.03
2022-10-31T11:26:44.167Z,14.02
2022-10-31T11:29:17.943Z,14.06
2022-10-31T11:31:48.480Z,14.05
2022-10-31T11:34:31.193Z,14.01
2022-10-31T11:37:15.423Z,14.08
2022-10-31T11:39:54.498Z,14.09
2022-10-31T11:42:27.519Z,14.13
2022-10-31T11:44:57.416Z,14.16
2022-10-31T11:47:33.625Z,14.17
2022-10-31T11:50:11.039Z,14.18
2022-10-31T11:52:41.529Z,14.13
2022-10-31T11:55:37.223Z,14.12
2022-10-31T11:58:20.116Z,14.18
2022-10-31T12:00:55.912Z,14.25
2022-10-31T12:03:25.051Z,14.34
2022-10-31T12:06:06.251Z,14.36
2022-10-31T12:08:38.311Z,14.40
2022-10-31T12:11:27.683Z,14.42
2022-10-31T12:14:14.690Z,14.43
2022-10-31T12:17:26.474Z,14.43
2022-10-31T12:20:08.255Z,14.43
2022-10-31T12:22:58.314Z,14.43
2022-10-31T12:26:09.976Z,14.40
2022-10-31T12:28:55.229Z,14.35
2022-10-31T12:31:36.976Z,14.37
2022-10-31T12:34:49.112Z,14.36
2022-10-31T12:37:32.556Z,14.37
2022-10-31T12:40:44.797Z,14.33
2022-10-31T12:43:34.850Z,14.31
2022-10-31T12:46:09.560Z,14.25
2022-10-31T12:49:09.281Z,14.25
2022-10-31T12:52:35.280Z,14.24
2022-10-31T12:55:38.880Z,14.20
2022-10-31T12:58:30.546Z,14.17
2022-10-31T13:01:18.102Z,14.16
2022-10-31T13:03:52.367Z,14.12
2022-10-31T13:06:25.492Z,14.11
2022-10-31T13:09:03.295Z,14.14
2022-10-31T13:11:39.055Z,14.15
2022-10-31T13:14:44.069Z,14.11
2022-10-31T13:17:43.402Z,14.10
2022-10-31T13:20:39.736Z,14.07
2022-10-31T13:23:52.008Z,14.05
2022-10-31T13:26:36.585Z,14.05
2022-10-31T13:29:34.852Z,13.99
2022-10-31T13:32:08.089Z,14.06
2022-10-31T13:34:47.033Z,14.07
2022-10-31T13:37:35.550Z,14.10
2022-10-31T13:40:35.331Z,14.11
2022-10-31T13:43:29.657Z,14.10
2022-10-31T13:46:01.440Z,14.05
2022-10-31T13:48:29.702Z,14.01
2022-10-31T13:51:03.152Z,13.99
2022-10-31T13:53:58.770Z,14.03
2022-10-31T13:56:33.868Z,14.06
2022-10-31T13:59:08.217Z,14.08
2022-10-31T14:01:37.895Z,14.10
2022-10-31T14:04:20.722Z,14.13
2022-10-31T14:07:08.718Z,14.06
2022-10-31T14:09:39.706Z,13.99
2022-10-31T14:12:24.744Z,13.96
2022-10-31T14:15:00.507Z,13.90
2022-10-31T14:17:38.200Z,13.86
2022-10-31T14:20:12.680Z,13.81
2022-10-31T14:22:43.014Z,13.77
2022-10-31T14:25:33.592Z,13.69
2022-10-31T14:28:32.029Z,13.67
2022-10-31T14:31:01.939Z,13.55
2022-10-31T14:33:32.143Z,13.47
2022-10-31T14:36:23.297Z,13.41
2022-10-31T14:39:23.349Z,13.36
2022-10-31T14:42:22.528Z,13.29
2022-10-31T14:45:06.412Z,13.20
2022-10-31T14:48:08.139Z,13.14
2022-10-31T14:50:49.863Z,13.08
2022-10-31T14:53:30.659Z,13.02
2022-10-31T14:56:04.300Z,12.98
2022-10-31T14:58:41.057Z,12.94
2022-10-31T15:01:22.164Z,12.91
2022-10-31T15:04:17.860Z,12.90
2022-10-31T15:06:49.279Z,12.89
2022-10-31T15:09:27.825Z,12.86
2022-10-31T15:11:56.020Z,12.83
2022-10-31T15:14:31.919Z,12.74
2022-10-31T15:17:04.100Z,12.77
2022-10-31T15:19:35.008Z,12.76
2022-10-31T15:22:03.402Z,12.75
2022-10-31T15:24:39.895Z,12.69
2022-10-31T15:27:16.984Z,12.65
2022-10-31T15:29:54.549Z,12.62
2022-10-31T15:32:29.603Z,12.55
2022-10-31T15:34:58.315Z,12.56
2022-10-31T15:37:28.080Z,12.52
2022-10-31T15:39:56.396Z,12.53
2022-10-31T15:42:48.429Z,12.48
2022-10-31T15:45:26.573Z,12.47
2022-10-31T15:48:05.809Z,12.42
2022-10-31T15:50:34.199Z,12.43
2022-10-31T15:53:03.389Z,12.41
2022-10-31T15:55:37.776Z,12.41
2022-10-31T15:58:15.489Z,12.40
2022-10-31T16:00:43.688Z,12.40
2022-10-31T16:03:31.273Z,12.40
2022-10-31T16:06:06.189Z,12.40
2022-10-31T16:08:37.383Z,12.40
2022-10-31T16:11:08.833Z,12.38
2022-10-31T16:13:42.823Z,12.35
2022-10-31T16:16:34.587Z,12.32
2022-10-31T16:19:07.151Z,12.30
2022-10-31T16:21:39.490Z,12.26
2022-10-31T16:24:32.958Z,12.23
2022-10-31T16:27:39.850Z,12.19
2022-10-31T16:30:47.020Z,12.13
2022-10-31T16:33:35.300Z,12.14
2022-10-31T16:36:35.398Z,12.13
2022-10-31T16:39:04.902Z,12.12
2022-10-31T16:41:40.907Z,12.07
2022-10-31T16:44:28.279Z,12.08
2022-10-31T16:47:09.996Z,12.05
2022-10-31T16:49:39.125Z,12.05
2022-10-31T16:52:07.704Z,12.03
2022-10-31T16:54:37.388Z,12.04
2022-10-31T16:57:07.238Z,12.10
2022-10-31T16:59:35.876Z,12.13
2022-10-31T17:02:05.463Z,12.14
2022-10-31T17:04:33.857Z,12.15
2022-10-31T17:07:02.168Z,12.17
2022-10-31T17:09:30.545Z,12.17
2022-10-31T17:11:59.081Z,12.19
2022-10-31T17:14:27.485Z,12.21
2022-10-31T17:16:58.772Z,12.20
2022-10-31T17:19:27.169Z,12.20
2022-10-31T17:21:55.515Z,12.18
2022-10-31T17:24:23.844Z,12.17
2022-10-31T17:26:52.169Z,12.15
2022-10-31T17:29:20.323Z,12.12
2022-10-31T17:31:49.512Z,12.10
2022-10-31T17:34:19.535Z,12.04
2022-10-31T17:36:52.748Z,12.03
2022-10-31T17:39:21.206Z,12.00
2022-10-31T17:41:53.179Z,11.99
2022-10-31T17:44:21.461Z,11.96
2022-10-31T17:46:50.503Z,11.93
2022-10-31T17:49:18.844Z,11.92
2022-10-31T17:51:47.123Z,11.93
2022-10-31T17:54:18.950Z,11.95
2022-10-31T17:56:47.427Z,11.94
2022-10-31T17:59:15.771Z,11.99
2022-10-31T18:01:44.292Z,12.03
2022-10-31T18:04:12.901Z,11.99
2022-10-31T18:06:41.386Z,12.02
2022-10-31T18:09:09.686Z,11.99
2022-10-31T18:11:37.969Z,11.96
2022-10-31T18:14:06.316Z,11.90
2022-10-31T18:16:37.753Z,11.88
2022-10-31T18:19:06.233Z,11.84
2022-10-31T18:21:34.652Z,11.77
2022-10-31T18:24:03.223Z,11.71
2022-10-31T18:26:32.431Z,11.65
2022-10-31T18:29:01.238Z,11.59
2022-10-31T18:31:29.845Z,11.54
2022-10-31T18:33:58.353Z,11.49
2022-10-31T18:36:29.805Z,11.43
2022-10-31T18:38:58.594Z,11.40
2022-10-31T18:41:28.601Z,11.37
2022-10-31T18:44:02.299Z,11.34
2022-10-31T18:46:30.752Z,11.34
2022-10-31T18:49:00.831Z,11.31
2022-10-31T18:51:29.897Z,11.36
2022-10-31T18:54:01.085Z,11.36
2022-10-31T18:56:35.660Z,11.36
2022-10-31T18:59:04.452Z,11.34
2022-10-31T19:01:33.009Z,11.34
2022-10-31T19:04:01.541Z,11.33
2022-10-31T19:06:31.054Z,11.32
2022-10-31T19:09:03.478Z,11.30
2022-10-31T19:11:33.986Z,11.30
2022-10-31T19:14:03.532Z,11.28
2022-10-31T19:16:33.614Z,11.27
2022-10-31T19:19:01.906Z,11.24
2022-10-31T19:21:32.710Z,11.24
2022-10-31T19:24:01.300Z,11.23
2022-10-31T19:26:29.875Z,11.18
2022-10-31T19:28:58.415Z,11.13
2022-10-31T19:31:27.176Z,11.08
2022-10-31T19:33:55.575Z,11.02
2022-10-31T19:36:24.470Z,10.94
2022-10-31T19:38:54.045Z,10.86
2022-10-31T19:41:26.373Z,10.80
2022-10-31T19:43:55.832Z,10.76
2022-10-31T19:49:13.100Z,10.68
2022-10-31T19:51:41.565Z,10.73
2022-10-31T19:54:11.575Z,10.74
2022-10-31T19:56:40.062Z,10.74
2022-10-31T19:59:08.431Z,10.73
2022-10-31T20:01:37.009Z,10.71
2022-10-31T20:04:05.471Z,10.68
2022-10-31T20:06:36.739Z,10.65
2022-10-31T20:09:13.939Z,10.59
2022-10-31T20:11:44.981Z,10.61
2022-10-31T20:14:16.510Z,10.59
2022-10-31T20:16:46.209Z,10.58
2022-10-31T20:19:14.409Z,10.56
2022-10-31T20:21:43.084Z,10.54
2022-10-31T20:24:11.770Z,10.54
2022-10-31T20:26:41.698Z,10.57
2022-10-31T20:29:14.044Z,10.61
2022-10-31T20:31:43.397Z,10.64
2022-10-31T20:34:11.952Z,10.68
2022-10-31T20:36:40.373Z,10.71
2022-10-31T20:39:10.314Z,10.69
2022-10-31T20:41:39.615Z,10.68
2022-10-31T20:44:08.399Z,10.66
2022-10-31T20:46:36.795Z,10.66
2022-10-31T20:49:05.472Z,10.64
2022-10-31T20:51:33.877Z,10.61
2022-10-31T20:54:02.362Z,10.57
2022-10-31T20:56:30.873Z,10.52
2022-10-31T20:58:59.217Z,10.47
2022-10-31T21:01:33.493Z,10.43
2022-10-31T21:04:04.371Z,10.37
2022-10-31T21:06:32.735Z,10.31
2022-10-31T21:09:01.420Z,10.27
2022-10-31T21:11:30.171Z,10.24
2022-10-31T21:13:59.722Z,10.24
2022-10-31T21:16:31.425Z,10.23
2022-10-31T21:19:01.112Z,10.17
2022-10-31T21:21:35.513Z,10.22
2022-10-31T21:24:13.712Z,10.21
2022-10-31T21:26:47.103Z,10.20
2022-10-31T21:29:17.648Z,10.20
2022-10-31T21:31:46.120Z,10.15
2022-10-31T21:34:15.221Z,10.16
2022-10-31T21:36:43.705Z,10.14
2022-10-31T21:39:11.943Z,10.13
2022-10-31T21:41:40.653Z,10.11
2022-10-31T21:44:08.997Z,10.10
2022-10-31T21:46:38.957Z,10.12
2022-10-31T21:49:07.539Z,10.12
2022-10-31T21:51:36.965Z,10.10
2022-10-31T21:54:24.050Z,10.15
2022-10-31T21:56:52.735Z,10.17
2022-10-31T21:59:22.290Z,10.19
2022-10-31T22:01:52.092Z,10.21
2022-10-31T22:04:20.647Z,10.17
2022-10-31T22:06:49.024Z,10.20
2022-10-31T22:09:20.047Z,10.19
2022-10-31T22:11:48.427Z,10.17
2022-10-31T22:14:17.025Z,10.16
2022-10-31T22:16:45.518Z,10.13
2022-10-31T22:19:14.899Z,10.10
2022-10-31T22:21:47.401Z,10.08
2022-10-31T22:24:17.560Z,10.07
2022-10-31T22:26:46.187Z,10.05
2022-10-31T22:29:18.354Z,9.99
2022-10-31T22:31:52.025Z,9.91
2022-10-31T22:34:23.713Z,9.79
2022-10-31T22:36:52.138Z,9.74
2022-10-31T22:39:21.088Z,9.68
2022-10-31T22:41:49.493Z,9.63
2022-10-31T22:44:18.644Z,9.60
2022-10-31T22:46:47.550Z,9.57
2022-10-31T22:49:16.650Z,9.54
2022-10-31T22:51:45.392Z,9.49
2022-10-31T22:54:17.375Z,9.47
2022-10-31T22:56:46.564Z,9.48
2022-10-31T22:59:16.843Z,9.46
2022-10-31T23:01:46.206Z,9.53
2022-10-31T23:04:16.565Z,9.56
2022-10-31T23:06:46.023Z,9.54
2022-10-31T23:09:17.296Z,9.58
2022-10-31T23:11:46.120Z,9.57
2022-10-31T23:14:21.119Z,9.53
2022-10-31T23:16:55.524Z,9.57
2022-10-31T23:19:30.495Z,9.57
2022-10-31T23:22:04.259Z,9.57
2022-10-31T23:24:41.634Z,9.52
2022-10-31T23:27:23.747Z,9.54
2022-10-31T23:29:58.401Z,9.52
2022-10-31T23:32:29.479Z,9.50
2022-10-31T23:35:01.933Z,9.51
2022-10-31T23:37:33.127Z,9.50
2022-10-31T23:40:01.718Z,9.50
2022-10-31T23:42:30.313Z,9.48
2022-10-31T23:44:59.013Z,9.47
2022-10-31T23:47:27.479Z,9.47
2022-10-31T23:49:55.655Z,9.47
2022-10-31T23:52:24.117Z,9.46
2022-10-31T23:54:52.523Z,9.43
2022-10-31T23:57:20.998Z,9.45
2022-10-31T23:59:49.631Z,9.44
